createdAt,value
2017-09-06T00:00:44.967Z,0
2017-09-06T00:01:44.940Z,0
2017-09-06T00:02:44.927Z,0
2017-09-06T00:03:44.584Z,0
2017-09-06T00:04:44.871Z,0
2017-09-06T00:05:44.548Z,0
2017-09-06T00:06:44.853Z,0
2017-09-06T00:07:44.499Z,0
2017-09-06T00:08:44.515Z,0
2017-09-06T00:09:44.461Z,0
2017-09-06T00:10:44.756Z,0
2017-09-06T00:11:44.125Z,0
2017-09-06T00:12:44.709Z,0
2017-09-06T00:13:44.690Z,0
2017-09-06T00:14:44.680Z,0
2017-09-06T00:15:44.346Z,0
2017-09-06T00:16:44.642Z,0
2017-09-06T00:17:44.619Z,0
2017-09-06T00:18:44.608Z,0
2017-09-06T00:19:44.287Z,0
2017-09-06T00:20:44.574Z,0
2017-09-06T00:21:44.538Z,0
2017-09-06T00:22:44.524Z,0
2017-09-06T00:23:44.544Z,0
2017-09-06T00:24:44.167Z,0
2017-09-06T00:25:44.455Z,0
2017-09-06T00:26:44.440Z,0
2017-09-06T00:27:44.413Z,0
2017-09-06T00:28:44.399Z,0
2017-09-06T00:29:44.429Z,0
2017-09-06T00:30:44.355Z,0
2017-09-06T00:31:44.342Z,0
2017-09-06T00:32:44.368Z,0
2017-09-06T00:33:44.352Z,0
2017-09-06T00:34:44.275Z,0
2017-09-06T00:35:44.261Z,0
2017-09-06T00:36:44.237Z,0
2017-09-06T00:37:43.911Z,0
2017-09-06T00:38:44.212Z,0
2017-09-06T00:39:44.185Z,0
2017-09-06T00:40:44.161Z,0
2017-09-06T00:41:44.142Z,0
2017-09-06T00:42:44.121Z,0
2017-09-06T00:43:44.102Z,0
2017-09-06T00:44:44.096Z,0
2017-09-06T00:45:43.791Z,0
2017-09-06T00:46:43.740Z,0
2017-09-06T00:47:43.713Z,0
2017-09-06T00:48:44.008Z,0
2017-09-06T00:49:43.996Z,0
2017-09-06T00:50:43.953Z,0
2017-09-06T00:51:43.942Z,0
2017-09-06T00:52:43.917Z,0
2017-09-06T00:53:43.900Z,0
2017-09-06T00:54:44.193Z,0
2017-09-06T00:55:43.861Z,0
2017-09-06T00:56:43.838Z,0
2017-09-06T00:57:43.831Z,0
2017-09-06T00:58:43.852Z,0
2017-09-06T00:59:43.841Z,0
2017-09-06T01:00:43.763Z,0
2017-09-06T01:01:43.856Z,0
2017-09-06T01:02:43.722Z,0
2017-09-06T01:03:43.808Z,0
2017-09-06T01:04:43.380Z,0
2017-09-06T01:05:43.670Z,0
2017-09-06T01:06:43.652Z,0
2017-09-06T01:07:43.625Z,0
2017-09-06T01:08:43.605Z,0
2017-09-06T01:09:43.586Z,0
2017-09-06T01:10:43.563Z,0
2017-09-06T01:11:43.554Z,0
2017-09-06T01:12:43.886Z,0
2017-09-06T01:13:43.502Z,0
2017-09-06T01:14:43.480Z,0
2017-09-06T01:15:43.465Z,0
2017-09-06T01:16:43.751Z,0
2017-09-06T01:17:43.122Z,0
2017-09-06T01:18:43.409Z,0
2017-09-06T01:19:43.386Z,0
2017-09-06T01:20:43.386Z,0
2017-09-06T01:21:43.348Z,0
2017-09-06T01:22:42.718Z,0
2017-09-06T01:23:43.358Z,0
2017-09-06T01:24:43.290Z,0
2017-09-06T01:25:42.964Z,0
2017-09-06T01:26:43.307Z,0
2017-09-06T01:27:42.975Z,0
2017-09-06T01:28:42.914Z,0
2017-09-06T01:29:42.880Z,0
2017-09-06T01:30:42.858Z,0
2017-09-06T01:31:43.155Z,0
2017-09-06T01:32:43.138Z,0
2017-09-06T01:33:43.107Z,0
2017-09-06T01:34:43.090Z,0
2017-09-06T01:35:43.092Z,0
2017-09-06T01:36:43.061Z,0
2017-09-06T01:37:43.031Z,0
2017-09-06T01:38:43.018Z,0
2017-09-06T01:39:42.739Z,0
2017-09-06T01:40:43.062Z,0
2017-09-06T01:41:42.960Z,0
2017-09-06T01:42:42.936Z,0
2017-09-06T01:43:42.617Z,0
2017-09-06T01:44:42.909Z,0
2017-09-06T01:45:42.929Z,0
2017-09-06T01:46:42.861Z,0
2017-09-06T01:47:42.886Z,0
2017-09-06T01:48:42.822Z,0
2017-09-06T01:49:42.492Z,0
2017-09-06T01:50:42.833Z,0
2017-09-06T01:51:42.757Z,0
2017-09-06T01:52:42.736Z,0
2017-09-06T01:53:42.411Z,0
2017-09-06T01:54:42.702Z,0
2017-09-06T01:55:42.370Z,0
2017-09-06T01:56:42.667Z,0
2017-09-06T01:57:42.333Z,0
2017-09-06T01:58:42.318Z,0
2017-09-06T01:59:42.604Z,0
2017-09-06T02:00:42.586Z,0
2017-09-06T02:01:42.573Z,0
2017-09-06T02:02:42.548Z,0
2017-09-06T02:03:42.565Z,0
2017-09-06T02:04:42.198Z,0
2017-09-06T02:05:42.480Z,0
2017-09-06T02:06:42.559Z,0
2017-09-06T02:07:42.436Z,0
2017-09-06T02:08:42.424Z,0
2017-09-06T02:09:42.450Z,0
2017-09-06T02:10:42.380Z,0
2017-09-06T02:11:42.064Z,0
2017-09-06T02:12:42.344Z,0
2017-09-06T02:13:42.011Z,0
2017-09-06T02:14:42.297Z,0
2017-09-06T02:15:42.282Z,0
2017-09-06T02:16:42.263Z,0
2017-09-06T02:17:42.242Z,0
2017-09-06T02:18:41.917Z,0
2017-09-06T02:19:42.207Z,0
2017-09-06T02:20:42.242Z,0
2017-09-06T02:21:42.159Z,0
2017-09-06T02:22:42.144Z,0
2017-09-06T02:23:42.172Z,0
2017-09-06T02:24:41.787Z,0
2017-09-06T02:25:42.086Z,0
2017-09-06T02:26:42.062Z,0
2017-09-06T02:27:42.038Z,0
2017-09-06T02:28:42.010Z,0
2017-09-06T02:29:42.001Z,0
2017-09-06T02:30:41.982Z,0
2017-09-06T02:31:42.007Z,0
2017-09-06T02:32:41.942Z,0
2017-09-06T02:33:41.973Z,0
2017-09-06T02:34:41.897Z,0
2017-09-06T02:35:41.890Z,0
2017-09-06T02:36:41.855Z,0
2017-09-06T02:37:41.846Z,0
2017-09-06T02:38:41.812Z,0
2017-09-06T02:39:41.507Z,0
2017-09-06T02:40:41.470Z,0
2017-09-06T02:41:41.767Z,0
2017-09-06T02:42:41.749Z,0
2017-09-06T02:43:41.714Z,0
2017-09-06T02:44:41.403Z,0
2017-09-06T02:45:41.690Z,0
2017-09-06T02:46:41.657Z,0
2017-09-06T02:47:41.334Z,0
2017-09-06T02:48:41.616Z,0
2017-09-06T02:49:41.609Z,0
2017-09-06T02:50:41.584Z,0
2017-09-06T02:51:41.250Z,0
2017-09-06T02:52:41.600Z,0
2017-09-06T02:53:41.212Z,0
2017-09-06T02:54:40.887Z,0
2017-09-06T02:55:41.173Z,0
2017-09-06T02:56:41.453Z,0
2017-09-06T02:57:41.493Z,0
2017-09-06T02:58:41.414Z,0
2017-09-06T02:59:41.390Z,0
2017-09-06T03:00:41.099Z,0
2017-09-06T03:01:41.354Z,0
2017-09-06T03:02:41.069Z,0
2017-09-06T03:03:41.369Z,0
2017-09-06T03:04:41.349Z,0
2017-09-06T03:05:41.269Z,0
2017-09-06T03:06:41.261Z,0
2017-09-06T03:07:41.235Z,0
2017-09-06T03:08:41.268Z,0
2017-09-06T03:09:41.198Z,0
2017-09-06T03:10:40.917Z,0
2017-09-06T03:11:41.160Z,0
2017-09-06T03:12:41.139Z,0
2017-09-06T03:13:41.116Z,0
2017-09-06T03:14:41.104Z,0
2017-09-06T03:15:40.818Z,0
2017-09-06T03:16:41.053Z,0
2017-09-06T03:17:40.717Z,0
2017-09-06T03:18:41.016Z,0
2017-09-06T03:19:40.992Z,0
2017-09-06T03:20:40.971Z,0
2017-09-06T03:21:40.962Z,0
2017-09-06T03:22:40.941Z,0
2017-09-06T03:23:40.921Z,0
2017-09-06T03:24:40.894Z,0
2017-09-06T03:25:40.560Z,0
2017-09-06T03:26:40.856Z,0
2017-09-06T03:27:40.831Z,0
2017-09-06T03:28:40.807Z,0
2017-09-06T03:29:40.480Z,0
2017-09-06T03:30:40.784Z,0
2017-09-06T03:31:40.754Z,0
2017-09-06T03:32:40.724Z,0
2017-09-06T03:33:40.711Z,0
2017-09-06T03:34:40.441Z,0
2017-09-06T03:35:40.667Z,0
2017-09-06T03:36:40.647Z,0
2017-09-06T03:37:40.634Z,0
2017-09-06T03:38:40.628Z,0
2017-09-06T03:39:40.838Z,0
2017-09-06T03:40:40.561Z,0
2017-09-06T03:41:40.605Z,0
2017-09-06T03:42:40.532Z,0
2017-09-06T03:43:40.517Z,0
2017-09-06T03:44:40.496Z,0
2017-09-06T03:45:40.456Z,0
2017-09-06T03:46:40.742Z,0
2017-09-06T03:47:40.114Z,0
2017-09-06T03:48:40.415Z,0
2017-09-06T03:49:40.392Z,0
2017-09-06T03:50:40.368Z,0
2017-09-06T03:51:40.367Z,0
2017-09-06T03:52:40.329Z,0
2017-09-06T03:53:40.309Z,0
2017-09-06T03:54:39.968Z,0
2017-09-06T03:55:40.263Z,0
2017-09-06T03:56:40.245Z,0
2017-09-06T03:57:40.224Z,0
2017-09-06T03:58:40.203Z,0
2017-09-06T03:59:40.182Z,0
2017-09-06T04:00:40.170Z,0
2017-09-06T04:01:40.147Z,0
2017-09-06T04:02:39.816Z,0
2017-09-06T04:03:40.105Z,0
2017-09-06T04:04:40.110Z,0
2017-09-06T04:05:40.063Z,0
2017-09-06T04:06:39.733Z,0
2017-09-06T04:07:40.022Z,0
2017-09-06T04:08:40.005Z,0
2017-09-06T04:09:39.980Z,0
2017-09-06T04:10:39.960Z,0
2017-09-06T04:11:39.334Z,0
2017-09-06T04:12:39.924Z,0
2017-09-06T04:13:39.955Z,0
2017-09-06T04:14:39.878Z,0
2017-09-06T04:15:39.554Z,0
2017-09-06T04:16:39.525Z,0
2017-09-06T04:17:39.818Z,0
2017-09-06T04:18:39.853Z,0
2017-09-06T04:19:39.795Z,0
2017-09-06T04:20:39.768Z,0
2017-09-06T04:21:39.743Z,0
2017-09-06T04:22:39.728Z,0
2017-09-06T04:23:39.699Z,0
2017-09-06T04:24:39.687Z,0
2017-09-06T04:25:39.655Z,0
2017-09-06T04:26:39.707Z,0
2017-09-06T04:27:39.624Z,0
2017-09-06T04:28:39.594Z,0
2017-09-06T04:29:39.585Z,0
2017-09-06T04:30:39.554Z,0
2017-09-06T04:31:39.545Z,0
2017-09-06T04:32:39.518Z,0
2017-09-06T04:33:39.499Z,0
2017-09-06T04:34:39.535Z,0
2017-09-06T04:35:39.468Z,0
2017-09-06T04:36:39.448Z,0
2017-09-06T04:37:39.433Z,0
2017-09-06T04:38:39.409Z,0
2017-09-06T04:39:39.399Z,0
2017-09-06T04:40:39.354Z,0
2017-09-06T04:41:38.731Z,0
2017-09-06T04:42:39.060Z,0
2017-09-06T04:43:39.292Z,0
2017-09-06T04:44:39.330Z,0
2017-09-06T04:45:39.254Z,0
2017-09-06T04:46:39.233Z,0
2017-09-06T04:47:39.225Z,0
2017-09-06T04:48:39.196Z,0
2017-09-06T04:49:39.173Z,0
2017-09-06T04:50:39.163Z,0
2017-09-06T04:51:39.130Z,0
2017-09-06T04:52:39.111Z,5
2017-09-06T04:53:39.100Z,5
2017-09-06T04:54:39.077Z,5
2017-09-06T04:55:39.056Z,5
2017-09-06T04:56:39.040Z,5
2017-09-06T04:57:39.018Z,5
2017-09-06T04:58:38.995Z,5
2017-09-06T04:59:38.715Z,5
2017-09-06T05:00:38.641Z,10
2017-09-06T05:01:38.932Z,10
2017-09-06T05:02:38.965Z,10
2017-09-06T05:03:38.892Z,10
2017-09-06T05:04:38.565Z,10
2017-09-06T05:05:38.864Z,10
2017-09-06T05:06:38.526Z,10
2017-09-06T05:07:38.808Z,15
2017-09-06T05:08:40.036Z,15
2017-09-06T05:09:38.775Z,10
2017-09-06T05:10:38.751Z,10
2017-09-06T05:11:38.728Z,10
2017-09-06T05:12:38.407Z,15
2017-09-06T05:13:38.693Z,15
2017-09-06T05:14:38.668Z,15
2017-09-06T05:15:38.651Z,10
2017-09-06T05:16:38.690Z,10
2017-09-06T05:17:38.603Z,10
2017-09-06T05:18:38.590Z,10
2017-09-06T05:19:38.563Z,15
2017-09-06T05:20:38.557Z,15
2017-09-06T05:21:38.538Z,15
2017-09-06T05:22:38.207Z,10
2017-09-06T05:23:38.488Z,10
2017-09-06T05:24:38.154Z,10
2017-09-06T05:25:38.452Z,10
2017-09-06T05:26:38.423Z,15
2017-09-06T05:27:38.408Z,15
2017-09-06T05:28:38.381Z,15
2017-09-06T05:29:38.369Z,20
2017-09-06T05:30:38.343Z,25
2017-09-06T05:31:38.322Z,30
2017-09-06T05:32:38.312Z,35
2017-09-06T05:33:38.322Z,40
2017-09-06T05:34:38.268Z,45
2017-09-06T05:35:38.260Z,50
2017-09-06T05:36:38.280Z,60
2017-09-06T05:37:38.260Z,60
2017-09-06T05:38:38.201Z,65
2017-09-06T05:39:38.168Z,70
2017-09-06T05:40:38.141Z,75
2017-09-06T05:41:38.129Z,60
2017-09-06T05:42:38.108Z,55
2017-09-06T05:43:38.075Z,55
2017-09-06T05:44:38.058Z,60
2017-09-06T05:45:38.045Z,60
2017-09-06T05:46:38.027Z,60
2017-09-06T05:47:37.690Z,60
2017-09-06T05:48:38.383Z,65
2017-09-06T05:49:37.968Z,70
2017-09-06T05:50:37.684Z,70
2017-09-06T05:51:37.913Z,75
2017-09-06T05:52:37.904Z,70
2017-09-06T05:53:37.883Z,75
2017-09-06T05:54:52.470Z,75
2017-09-06T05:55:37.840Z,70
2017-09-06T05:56:37.819Z,60
2017-09-06T05:57:37.484Z,50
2017-09-06T05:58:37.779Z,60
2017-09-06T05:59:37.755Z,45
2017-09-06T06:00:37.436Z,50
2017-09-06T06:01:37.720Z,65
2017-09-06T06:02:37.699Z,75
2017-09-06T06:03:37.678Z,95
2017-09-06T06:04:37.657Z,95
2017-09-06T06:05:37.638Z,110
2017-09-06T06:06:37.617Z,115
2017-09-06T06:07:37.596Z,125
2017-09-06T06:08:37.582Z,130
2017-09-06T06:09:37.561Z,135
2017-09-06T06:10:37.552Z,130
2017-09-06T06:11:37.522Z,180
2017-09-06T06:12:37.590Z,135
2017-09-06T06:13:37.171Z,130
2017-09-06T06:14:37.453Z,175
2017-09-06T06:15:37.433Z,195
2017-09-06T06:16:37.467Z,210
2017-09-06T06:17:37.397Z,200
2017-09-06T06:18:37.073Z,175
2017-09-06T06:19:37.357Z,165
2017-09-06T06:20:37.334Z,140
2017-09-06T06:21:37.328Z,145
2017-09-06T06:22:36.999Z,120
2017-09-06T06:23:37.275Z,90
2017-09-06T06:24:37.256Z,65
2017-09-06T06:25:37.240Z,60
2017-09-06T06:26:36.925Z,45
2017-09-06T06:27:37.202Z,40
2017-09-06T06:28:37.180Z,40
2017-09-06T06:29:37.160Z,40
2017-09-06T06:30:37.141Z,75
2017-09-06T06:31:37.125Z,90
2017-09-06T06:32:36.801Z,60
2017-09-06T06:33:36.774Z,40
2017-09-06T06:34:36.767Z,40
2017-09-06T06:35:37.053Z,40
2017-09-06T06:36:37.048Z,50
2017-09-06T06:37:37.011Z,60
2017-09-06T06:38:36.984Z,65
2017-09-06T06:39:36.971Z,95
2017-09-06T06:40:36.942Z,125
2017-09-06T06:41:36.624Z,90
2017-09-06T06:42:36.293Z,70
2017-09-06T06:43:36.585Z,55
2017-09-06T06:44:36.893Z,60
2017-09-06T06:45:36.851Z,55
2017-09-06T06:46:36.523Z,70
2017-09-06T06:47:36.502Z,70
2017-09-06T06:48:36.480Z,90
2017-09-06T06:49:36.477Z,95
2017-09-06T06:50:36.132Z,140
2017-09-06T06:51:36.738Z,135
2017-09-06T06:52:36.707Z,160
2017-09-06T06:53:36.084Z,105
2017-09-06T06:54:36.367Z,95
2017-09-06T06:55:36.347Z,110
2017-09-06T06:56:36.681Z,115
2017-09-06T06:57:36.319Z,155
2017-09-06T06:58:36.280Z,145
2017-09-06T06:59:36.271Z,135
2017-09-06T07:00:36.654Z,145
2017-09-06T07:01:36.276Z,110
2017-09-06T07:02:36.207Z,105
2017-09-06T07:03:35.568Z,105
2017-09-06T07:04:36.214Z,120
2017-09-06T07:05:36.451Z,105
2017-09-06T07:06:36.122Z,125
2017-09-06T07:07:35.799Z,135
2017-09-06T07:08:36.086Z,205
2017-09-06T07:09:36.523Z,155
2017-09-06T07:10:36.357Z,145
2017-09-06T07:11:36.344Z,100
2017-09-06T07:12:36.010Z,75
2017-09-06T07:13:36.087Z,80
2017-09-06T07:14:35.404Z,80
2017-09-06T07:15:35.959Z,85
2017-09-06T07:16:35.614Z,105
2017-09-06T07:17:36.018Z,110
2017-09-06T07:18:35.575Z,135
2017-09-06T07:19:36.170Z,195
2017-09-06T07:20:36.357Z,185
2017-09-06T07:21:35.833Z,150
2017-09-06T07:22:35.555Z,155
2017-09-06T07:23:36.144Z,150
2017-09-06T07:24:35.209Z,155
2017-09-06T07:25:36.147Z,195
2017-09-06T07:26:35.850Z,235
2017-09-06T07:27:35.705Z,255
2017-09-06T07:28:35.690Z,305
2017-09-06T07:29:35.980Z,365
2017-09-06T07:30:36.149Z,335
2017-09-06T07:31:35.324Z,325
2017-09-06T07:32:35.298Z,270
2017-09-06T07:33:35.301Z,320
2017-09-06T07:34:35.386Z,275
2017-09-06T07:35:34.941Z,300
2017-09-06T07:36:35.838Z,415
2017-09-06T07:37:35.517Z,575
2017-09-06T07:38:35.486Z,615
2017-09-06T07:39:35.772Z,565
2017-09-06T07:40:35.566Z,370
2017-09-06T07:41:35.438Z,320
2017-09-06T07:42:35.720Z,215
2017-09-06T07:43:35.863Z,180
2017-09-06T07:44:35.372Z,175
2017-09-06T07:45:35.362Z,205
2017-09-06T07:46:35.226Z,170
2017-09-06T07:47:35.725Z,185
2017-09-06T07:48:35.345Z,240
2017-09-06T07:49:34.978Z,145
2017-09-06T07:50:34.961Z,70
2017-09-06T07:51:34.941Z,85
2017-09-06T07:52:35.224Z,95
2017-09-06T07:53:34.922Z,95
2017-09-06T07:54:34.582Z,80
2017-09-06T07:55:34.863Z,75
2017-09-06T07:56:35.031Z,90
2017-09-06T07:57:34.971Z,155
2017-09-06T07:58:34.961Z,160
2017-09-06T07:59:34.788Z,100
2017-09-06T08:00:35.075Z,90
2017-09-06T08:01:34.693Z,115
2017-09-06T08:02:34.724Z,120
2017-09-06T08:03:34.383Z,115
2017-09-06T08:04:34.885Z,140
2017-09-06T08:05:34.968Z,165
2017-09-06T08:06:34.796Z,205
2017-09-06T08:07:35.040Z,135
2017-09-06T08:08:34.610Z,95
2017-09-06T08:09:34.887Z,80
2017-09-06T08:10:34.611Z,85
2017-09-06T08:11:34.540Z,80
2017-09-06T08:12:34.634Z,75
2017-09-06T08:13:34.901Z,165
2017-09-06T08:14:34.594Z,250
2017-09-06T08:15:34.485Z,250
2017-09-06T08:16:34.449Z,230
2017-09-06T08:17:34.518Z,175
2017-09-06T08:18:34.117Z,170
2017-09-06T08:19:34.391Z,195
2017-09-06T08:20:34.196Z,225
2017-09-06T08:21:34.690Z,230
2017-09-06T08:22:34.353Z,135
2017-09-06T08:23:34.935Z,110
2017-09-06T08:24:34.996Z,115
2017-09-06T08:25:35.012Z,155
2017-09-06T08:26:34.886Z,130
2017-09-06T08:27:34.987Z,215
2017-09-06T08:28:34.183Z,200
2017-09-06T08:29:34.681Z,250
2017-09-06T08:30:34.909Z,185
2017-09-06T08:31:34.839Z,170
2017-09-06T08:32:34.826Z,155
2017-09-06T08:33:34.851Z,175
2017-09-06T08:34:34.823Z,210
2017-09-06T08:35:34.660Z,165
2017-09-06T08:36:34.328Z,165
2017-09-06T08:37:34.977Z,155
2017-09-06T08:38:34.905Z,140
2017-09-06T08:39:34.279Z,135
2017-09-06T08:40:34.790Z,120
2017-09-06T08:41:34.021Z,115
2017-09-06T08:42:34.522Z,120
2017-09-06T08:43:34.611Z,95
2017-09-06T08:44:34.330Z,80
2017-09-06T08:45:34.489Z,85
2017-09-06T08:46:34.734Z,100
2017-09-06T08:47:34.367Z,95
2017-09-06T08:48:34.494Z,125
2017-09-06T08:49:34.221Z,115
2017-09-06T08:50:34.112Z,120
2017-09-06T08:51:34.236Z,140
2017-09-06T08:52:34.009Z,220
2017-09-06T08:53:33.780Z,220
2017-09-06T08:54:34.271Z,200
2017-09-06T08:55:33.649Z,245
2017-09-06T08:56:33.624Z,300
2017-09-06T08:57:33.711Z,225
2017-09-06T08:58:33.739Z,275
2017-09-06T08:59:34.280Z,345
2017-09-06T09:00:34.299Z,355
2017-09-06T09:01:33.615Z,315
2017-09-06T09:02:34.103Z,360
2017-09-06T09:03:34.090Z,380
2017-09-06T09:04:33.905Z,405
2017-09-06T09:05:33.753Z,365
2017-09-06T09:06:33.820Z,375
2017-09-06T09:07:33.411Z,415
2017-09-06T09:08:33.785Z,350
2017-09-06T09:09:34.310Z,320
2017-09-06T09:10:33.989Z,185
2017-09-06T09:11:33.656Z,130
2017-09-06T09:12:33.607Z,150
2017-09-06T09:13:33.688Z,245
2017-09-06T09:14:33.722Z,200
2017-09-06T09:15:33.843Z,185
2017-09-06T09:16:33.825Z,270
2017-09-06T09:17:32.973Z,280
2017-09-06T09:18:33.228Z,255
2017-09-06T09:19:33.611Z,190
2017-09-06T09:20:33.143Z,155
2017-09-06T09:21:33.715Z,200
2017-09-06T09:22:33.313Z,260
2017-09-06T09:23:33.375Z,250
2017-09-06T09:24:33.456Z,290
2017-09-06T09:25:33.579Z,325
2017-09-06T09:26:33.098Z,315
2017-09-06T09:27:32.729Z,325
2017-09-06T09:28:32.668Z,350
2017-09-06T09:29:32.959Z,395
2017-09-06T09:30:32.741Z,460
2017-09-06T09:31:33.004Z,445
2017-09-06T09:32:32.881Z,290
2017-09-06T09:33:32.859Z,195
2017-09-06T09:34:33.460Z,180
2017-09-06T09:35:33.041Z,175
2017-09-06T09:36:33.115Z,225
2017-09-06T09:37:32.893Z,290
2017-09-06T09:38:32.602Z,315
2017-09-06T09:39:32.889Z,345
2017-09-06T09:40:32.767Z,345
2017-09-06T09:41:32.753Z,355
2017-09-06T09:42:32.992Z,365
2017-09-06T09:43:32.245Z,400
2017-09-06T09:44:32.787Z,410
2017-09-06T09:45:33.229Z,425
2017-09-06T09:46:33.004Z,410
2017-09-06T09:47:33.177Z,410
2017-09-06T09:48:33.153Z,440
2017-09-06T09:49:33.296Z,450
2017-09-06T09:50:32.967Z,430
2017-09-06T09:51:33.194Z,670
2017-09-06T09:52:32.771Z,645
2017-09-06T09:53:33.057Z,1040
2017-09-06T09:54:33.236Z,825
2017-09-06T09:55:32.871Z,775
2017-09-06T09:56:33.105Z,835
2017-09-06T09:57:33.070Z,695
2017-09-06T09:58:32.654Z,645
2017-09-06T09:59:33.198Z,585
2017-09-06T10:00:32.959Z,455
2017-09-06T10:01:32.894Z,410
2017-09-06T10:02:32.821Z,415
2017-09-06T10:03:32.953Z,415
2017-09-06T10:04:32.836Z,440
2017-09-06T10:05:32.615Z,420
2017-09-06T10:06:32.797Z,385
2017-09-06T10:07:32.834Z,380
2017-09-06T10:08:32.603Z,405
2017-09-06T10:09:32.587Z,420
2017-09-06T10:10:32.874Z,505
2017-09-06T10:11:32.716Z,720
2017-09-06T10:12:32.684Z,550
2017-09-06T10:13:32.819Z,620
2017-09-06T10:14:32.639Z,755
2017-09-06T10:15:32.665Z,570
2017-09-06T10:16:32.297Z,630
2017-09-06T10:17:32.586Z,495
2017-09-06T10:18:32.572Z,465
2017-09-06T10:19:32.539Z,475
2017-09-06T10:20:32.413Z,495
2017-09-06T10:21:32.392Z,555
2017-09-06T10:22:32.539Z,570
2017-09-06T10:23:32.671Z,595
2017-09-06T10:24:32.447Z,595
2017-09-06T10:25:32.174Z,560
2017-09-06T10:26:32.665Z,545
2017-09-06T10:27:32.642Z,520
2017-09-06T10:28:32.672Z,515
2017-09-06T10:29:32.347Z,460
2017-09-06T10:30:32.394Z,445
2017-09-06T10:31:32.461Z,410
2017-09-06T10:32:32.587Z,360
2017-09-06T10:33:32.278Z,350
2017-09-06T10:34:32.353Z,355
2017-09-06T10:35:32.433Z,325
2017-09-06T10:36:32.213Z,315
2017-09-06T10:37:32.194Z,300
2017-09-06T10:38:32.176Z,290
2017-09-06T10:39:32.155Z,285
2017-09-06T10:40:32.154Z,275
2017-09-06T10:41:32.471Z,290
2017-09-06T10:42:32.192Z,280
2017-09-06T10:43:31.879Z,300
2017-09-06T10:44:32.060Z,335
2017-09-06T10:45:32.040Z,375
2017-09-06T10:46:32.173Z,390
2017-09-06T10:47:32.016Z,455
2017-09-06T10:48:31.982Z,385
2017-09-06T10:49:31.755Z,445
2017-09-06T10:50:31.938Z,390
2017-09-06T10:51:32.236Z,410
2017-09-06T10:52:31.599Z,390
2017-09-06T10:53:31.679Z,345
2017-09-06T10:54:31.856Z,345
2017-09-06T10:55:31.638Z,315
2017-09-06T10:56:31.985Z,315
2017-09-06T10:57:31.511Z,325
2017-09-06T10:58:31.988Z,340
2017-09-06T10:59:31.923Z,325
2017-09-06T11:00:31.751Z,375
2017-09-06T11:01:31.739Z,340
2017-09-06T11:02:31.905Z,350
2017-09-06T11:03:31.685Z,360
2017-09-06T11:04:31.766Z,365
2017-09-06T11:05:31.667Z,350
2017-09-06T11:06:31.648Z,355
2017-09-06T11:07:31.831Z,380
2017-09-06T11:08:31.592Z,450
2017-09-06T11:09:31.271Z,455
2017-09-06T11:10:31.550Z,410
2017-09-06T11:11:31.534Z,500
2017-09-06T11:12:31.621Z,520
2017-09-06T11:13:31.086Z,575
2017-09-06T11:14:31.733Z,585
2017-09-06T11:15:31.620Z,465
2017-09-06T11:16:31.535Z,520
2017-09-06T11:17:31.668Z,465
2017-09-06T11:18:31.500Z,500
2017-09-06T11:19:31.592Z,510
2017-09-06T11:20:31.513Z,485
2017-09-06T11:21:31.184Z,320
2017-09-06T11:22:31.374Z,265
2017-09-06T11:23:31.310Z,285
2017-09-06T11:24:31.040Z,310
2017-09-06T11:25:31.284Z,390
2017-09-06T11:26:31.303Z,465
2017-09-06T11:27:31.326Z,380
2017-09-06T11:28:30.917Z,340
2017-09-06T11:29:31.497Z,295
2017-09-06T11:30:31.590Z,280
2017-09-06T11:31:31.018Z,235
2017-09-06T11:32:31.449Z,250
2017-09-06T11:33:31.123Z,290
2017-09-06T11:34:31.152Z,360
2017-09-06T11:35:30.985Z,415
2017-09-06T11:36:31.062Z,480
2017-09-06T11:37:31.251Z,520
2017-09-06T11:38:31.030Z,435
2017-09-06T11:39:31.168Z,435
2017-09-06T11:40:31.005Z,465
2017-09-06T11:41:31.179Z,470
2017-09-06T11:42:31.201Z,450
2017-09-06T11:43:31.241Z,450
2017-09-06T11:44:30.612Z,460
2017-09-06T11:45:30.689Z,460
2017-09-06T11:46:31.030Z,470
2017-09-06T11:47:30.555Z,495
2017-09-06T11:48:30.989Z,510
2017-09-06T11:49:30.562Z,510
2017-09-06T11:50:30.963Z,500
2017-09-06T11:51:30.786Z,485
2017-09-06T11:52:30.460Z,470
2017-09-06T11:53:30.752Z,435
2017-09-06T11:54:30.875Z,390
2017-09-06T11:55:30.746Z,345
2017-09-06T11:56:31.039Z,315
2017-09-06T11:57:30.535Z,265
2017-09-06T11:58:30.675Z,260
2017-09-06T11:59:30.422Z,255
2017-09-06T12:00:30.406Z,285
2017-09-06T12:01:30.896Z,315
2017-09-06T12:02:30.607Z,355
2017-09-06T12:03:30.563Z,370
2017-09-06T12:04:30.651Z,335
2017-09-06T12:05:30.529Z,285
2017-09-06T12:06:30.564Z,330
2017-09-06T12:07:30.742Z,315
2017-09-06T12:08:30.621Z,310
2017-09-06T12:09:30.808Z,340
2017-09-06T12:10:30.383Z,305
2017-09-06T12:11:30.428Z,285
2017-09-06T12:12:30.391Z,305
2017-09-06T12:13:30.080Z,310
2017-09-06T12:14:30.368Z,315
2017-09-06T12:15:30.433Z,305
2017-09-06T12:16:30.467Z,305
2017-09-06T12:17:30.292Z,330
2017-09-06T12:18:30.275Z,395
2017-09-06T12:19:30.264Z,435
2017-09-06T12:20:30.431Z,445
2017-09-06T12:21:30.431Z,455
2017-09-06T12:22:30.506Z,445
2017-09-06T12:23:30.383Z,420
2017-09-06T12:24:30.216Z,345
2017-09-06T12:25:30.284Z,240
2017-09-06T12:26:30.121Z,170
2017-09-06T12:27:29.800Z,140
2017-09-06T12:28:29.985Z,145
2017-09-06T12:29:30.072Z,185
2017-09-06T12:30:30.045Z,210
2017-09-06T12:31:30.044Z,305
2017-09-06T12:32:30.106Z,385
2017-09-06T12:33:30.100Z,370
2017-09-06T12:34:29.578Z,365
2017-09-06T12:35:29.970Z,280
2017-09-06T12:36:29.425Z,250
2017-09-06T12:37:29.297Z,220
2017-09-06T12:38:29.743Z,195
2017-09-06T12:39:29.609Z,195
2017-09-06T12:40:29.709Z,225
2017-09-06T12:41:29.854Z,280
2017-09-06T12:42:29.530Z,285
2017-09-06T12:43:29.751Z,275
2017-09-06T12:44:29.393Z,275
2017-09-06T12:45:29.966Z,295
2017-09-06T12:46:29.903Z,320
2017-09-06T12:47:29.380Z,355
2017-09-06T12:48:29.248Z,380
2017-09-06T12:49:29.445Z,420
2017-09-06T12:50:29.744Z,430
2017-09-06T12:51:28.807Z,445
2017-09-06T12:52:28.880Z,440
2017-09-06T12:53:29.103Z,430
2017-09-06T12:54:29.396Z,420
2017-09-06T12:55:28.656Z,385
2017-09-06T12:56:29.255Z,330
2017-09-06T12:57:28.927Z,350
2017-09-06T12:58:28.299Z,380
2017-09-06T12:59:28.990Z,385
2017-09-06T13:00:28.922Z,305
2017-09-06T13:01:28.848Z,285
2017-09-06T13:02:29.046Z,190
2017-09-06T13:03:28.970Z,145
2017-09-06T13:04:28.644Z,215
2017-09-06T13:05:29.358Z,240
2017-09-06T13:06:29.407Z,240
2017-09-06T13:07:29.446Z,300
2017-09-06T13:08:29.476Z,310
2017-09-06T13:09:29.398Z,275
2017-09-06T13:10:28.436Z,230
2017-09-06T13:11:28.955Z,130
2017-09-06T13:12:29.150Z,65
2017-09-06T13:13:29.128Z,45
2017-09-06T13:14:28.906Z,40
2017-09-06T13:15:28.928Z,55
2017-09-06T13:16:29.176Z,100
2017-09-06T13:17:29.142Z,110
2017-09-06T13:18:29.232Z,100
2017-09-06T13:19:29.283Z,100
2017-09-06T13:20:28.988Z,115
2017-09-06T13:21:28.934Z,110
2017-09-06T13:22:28.487Z,120
2017-09-06T13:23:28.873Z,125
2017-09-06T13:24:28.418Z,105
2017-09-06T13:25:27.913Z,95
2017-09-06T13:26:28.662Z,95
2017-09-06T13:27:28.036Z,95
2017-09-06T13:28:28.732Z,115
2017-09-06T13:29:28.357Z,130
2017-09-06T13:30:28.889Z,155
2017-09-06T13:31:28.250Z,165
2017-09-06T13:32:28.604Z,180
2017-09-06T13:33:28.267Z,205
2017-09-06T13:34:27.803Z,235
2017-09-06T13:35:28.800Z,270
2017-09-06T13:36:28.656Z,300
2017-09-06T13:37:28.641Z,315
2017-09-06T13:38:27.805Z,335
2017-09-06T13:39:28.185Z,355
2017-09-06T13:40:28.223Z,365
2017-09-06T13:41:28.603Z,365
2017-09-06T13:42:28.691Z,350
2017-09-06T13:43:28.361Z,355
2017-09-06T13:44:28.138Z,365
2017-09-06T13:45:28.067Z,365
2017-09-06T13:46:28.560Z,370
2017-09-06T13:47:28.528Z,375
2017-09-06T13:48:28.504Z,375
2017-09-06T13:49:28.592Z,375
2017-09-06T13:50:28.611Z,370
2017-09-06T13:51:28.151Z,375
2017-09-06T13:52:28.132Z,385
2017-09-06T13:53:27.795Z,390
2017-09-06T13:54:28.027Z,390
2017-09-06T13:55:28.172Z,380
2017-09-06T13:56:28.047Z,375
2017-09-06T13:57:28.482Z,365
2017-09-06T13:58:28.417Z,360
2017-09-06T13:59:28.340Z,355
2017-09-06T14:00:28.117Z,350
2017-09-06T14:01:27.756Z,340
2017-09-06T14:02:27.644Z,330
2017-09-06T14:03:27.301Z,330
2017-09-06T14:04:27.388Z,325
2017-09-06T14:05:27.376Z,325
2017-09-06T14:06:27.959Z,340
2017-09-06T14:07:27.785Z,350
2017-09-06T14:08:28.114Z,360
2017-09-06T14:09:27.630Z,360
2017-09-06T14:10:27.673Z,355